Kamen HR Speed Test Log

Averages  Max Speed    
1 to 25 of 230** for City Kamen HR
Time
  
  Speed   Provider Size    User ConnectID   TestID  
10/23/19 5:13:25 pm 111.93 Mbps 13.99 MB/sHrvatski 80.4 MB85410723692 ifM1pboym 
10/23/19 5:12:59 pm 109.86 Mbps 13.73 MB/sHrvatski 74.1 MB85410723692 V~oTfUX3t 
10/23/19 2:19:08 pm 110.6 Mbps 13.83 MB/sHrvatski 74.1 MB85410723692 4LjrkiSAi 
9/20/18 4:33:01 am 38.52 Mbps 4.81 MB/sHrvatski 37.3 MB7623485207492 QU5k~CVhp 
9/13/18 6:40:37 pm 3.77 Mbps 472 kB/sHrvatski 5.1 MB7623485847221 QXaLGlA-4 
8/6/18 11:10:10 am 2.98 Mbps 372 kB/sIskon 3.8 MB1955159978342 9xUEcpXRT 
7/29/18 8:38:54 am 19.31 Mbps 2.41 MB/sIskon 44.5 MB195515999271 Vi2ohr9sC 
7/29/18 7:30:05 am 475 kbps 59 kB/sHrvatski 256 kB7623485855199 lfNM7aWi5 
7/29/18 7:29:59 am 8.57 Mbps 1.07 MB/sHrvatski 6.3 MB7623485855199 TUqv5WY7I 
7/16/18 7:18:30 pm 2.53 Mbps 316 kB/sHrvatski 4.7 MB7623485754416 Vgd0a2q1u 
7/16/18 5:35:41 pm 2.4 Mbps 300 kB/sHrvatski 4.5 MB7623485754416 ThEYdiuGZ 
7/11/18 10:44:42 pm 23.73 Mbps 2.97 MB/sIskon 19.4 MB195516001747 o9GITa73v 
7/11/18 10:43:13 pm 27.69 Mbps 3.46 MB/sIskon 43.1 MB195516001747 bSjZeYQI2 
6/29/18 8:56:13 pm 1.38 Mbps 173 kB/sHrvatski 1.3 MB762348531971 xG4ICDMSw 
6/29/18 8:55:54 pm 1.52 Mbps 190 kB/sHrvatski 1.3 MB762348531971 w3u81PhKC 
6/24/18 1:40:01 pm 2.6 Mbps 325 kB/sHrvatski 18.9 MB762348579382 4SJeL73GY 
6/24/18 1:37:39 pm 1.28 Mbps 160 kB/sHrvatski 1.2 MB762348579382 X3NfBdRVq 
6/24/18 1:37:28 pm 5.85 Mbps 732 kB/sHrvatski 6.2 MB762348579382 qnry_pCj8 
6/6/18 8:01:18 am 5.07 Mbps 634 kB/sHrvatski 6.2 MB762348580482 Its7RacHP 
5/31/18 5:01:33 pm 20.75 Mbps 2.59 MB/sIskon 44.5 MB1955159982469 3WUGrSOh8 
5/8/18 7:17:23 pm 3.29 Mbps 412 kB/sHrvatski 3.3 MB7164957786 3ZK6Eb9ux 
3/5/18 9:04:17 pm 4.86 Mbps 607 kB/sHrvatski 2.4 MB8541535717097 toi4NPmrg 
2/5/18 3:20:41 pm 13.34 Mbps 1.67 MB/sHrvatski 6.2 MB8541535807701 WOycLUxCo 
1/24/18 9:13:02 pm 10.32 Mbps 1.29 MB/sHrvatski 6.3 MB7183127156 HDYoGhqQa 
1/19/18 1:20:13 pm 22.63 Mbps 2.83 MB/sVipnet Ltd 43 MB423991944353 XGlVFon2r 
  
** Partial Results: The most recent results have been displayed. Results over 50 Mbps are highlighted.
Calculated from graphed results above not entire query.
Displaying Internet Speed Test results for City Kamen HR

Minimum

Min 1.38 Mbps : 0.48 Mbps

Average

Avg 11.38 Mbps : 56.5 Mbps

Maximum

Max 38.52 Mbps : 111.93 Mbps

Minimum

Min: 1.38 Mbps : 0.48 Mbps |

Average

Avg: 11.38 Mbps : 56.5 Mbps |

Maximum

Max: 38.52 Mbps : 111.93 Mbps